Time;durP1;ratioP1;P1;durP2;ratioP2;P2;SDS_P1;SDS_P2;PMS_P1;PMS_P2;Temp;Humidity;BMP_temperature;BMP_pressure;BME280_temperature;BME280_humidity;BME280_pressure;Samples;Min_cycle;Max_cycle;Signal;HPM_P1;HPM_P2
2021/08/10 00:00:29;;;;;;;4.85;1.60;;;19.60;79.00;;;;;;5067298;28;20055;-69
2021/08/10 00:02:55;;;;;;;4.47;1.50;;;19.60;78.80;;;;;;5063553;28;20025;-69
2021/08/10 00:05:20;;;;;;;4.28;1.40;;;19.60;78.80;;;;;;5064773;28;20028;-69
2021/08/10 00:07:46;;;;;;;4.72;1.35;;;19.60;79.00;;;;;;5064299;28;20028;-69
2021/08/10 00:10:12;;;;;;;2.90;1.13;;;19.60;79.20;;;;;;5057487;28;20390;-68
2021/08/10 00:12:37;;;;;;;3.65;1.30;;;19.60;79.20;;;;;;5060886;28;20502;-68
2021/08/10 00:15:05;;;;;;;2.92;1.20;;;19.60;79.40;;;;;;5054971;28;20089;-68
2021/08/10 00:17:31;;;;;;;3.38;1.45;;;19.60;79.30;;;;;;5054241;28;20498;-69
2021/08/10 00:19:56;;;;;;;4.43;1.63;;;19.60;79.30;;;;;;5061767;28;20111;-68
2021/08/10 00:22:22;;;;;;;2.78;1.30;;;19.60;79.50;;;;;;5058696;28;20025;-69
2021/08/10 00:24:47;;;;;;;3.75;1.50;;;19.60;79.50;;;;;;5066974;28;20025;-68
2021/08/10 00:27:15;;;;;;;4.35;1.48;;;19.60;79.50;;;;;;5068974;28;20029;-68
2021/08/10 00:29:41;;;;;;;3.70;1.33;;;19.60;79.50;;;;;;5060751;28;20490;-68
2021/08/10 00:32:07;;;;;;;4.65;1.75;;;19.60;79.50;;;;;;5040514;28;20066;-69
2021/08/10 00:34:32;;;;;;;3.28;1.20;;;19.60;79.60;;;;;;5045227;28;20635;-68
2021/08/10 00:36:58;;;;;;;5.93;1.55;;;19.60;79.70;;;;;;5044498;28;20083;-68
2021/08/10 00:39:23;;;;;;;3.97;1.42;;;19.60;79.60;;;;;;5057140;28;20024;-68
2021/08/10 00:41:49;;;;;;;6.82;1.60;;;19.60;79.70;;;;;;5070459;28;20058;-69
2021/08/10 00:44:15;;;;;;;4.45;1.60;;;19.60;79.70;;;;;;5071069;28;20478;-67
2021/08/10 00:46:40;;;;;;;4.53;1.33;;;19.50;79.70;;;;;;5050323;28;20058;-69
2021/08/10 00:49:06;;;;;;;3.13;1.60;;;19.50;79.90;;;;;;5058605;28;20037;-69
2021/08/10 00:51:32;;;;;;;4.65;1.30;;;19.50;80.00;;;;;;5051639;28;20032;-69
2021/08/10 00:53:59;;;;;;;4.05;1.45;;;19.50;80.10;;;;;;5070293;28;20714;-68
2021/08/10 00:56:25;;;;;;;3.47;1.63;;;19.50;80.10;;;;;;5062916;28;20024;-68
2021/08/10 00:58:50;;;;;;;6.47;1.58;;;19.60;80.20;;;;;;5062842;28;20028;-69
2021/08/10 01:01:16;;;;;;;4.22;1.38;;;19.50;80.00;;;;;;5070296;28;20111;-69
2021/08/10 01:03:41;;;;;;;6.20;1.42;;;19.60;80.20;;;;;;5073908;28;20222;-68
2021/08/10 01:06:24;;;;;;;6.85;1.60;;;19.50;80.20;;;;;;5057063;28;20040;-69
2021/08/10 01:08:56;;;;;;;4.10;1.38;;;19.50;80.30;;;;;;5060450;28;20036;-69
2021/08/10 01:11:30;;;;;;;5.90;1.80;;;19.50;80.40;;;;;;5051615;28;20517;-68
2021/08/10 01:14:10;;;;;;;5.00;1.50;;;19.50;80.20;;;;;;5066491;28;20178;-69
2021/08/10 01:17:01;;;;;;;3.95;1.58;;;19.60;80.30;;;;;;5051436;28;20056;-69
2021/08/10 01:20:05;;;;;;;4.03;1.38;;;19.50;80.30;;;;;;5050000;28;20037;-68
2021/08/10 01:22:32;;;;;;;4.88;1.42;;;19.50;80.40;;;;;;5067743;28;20059;-68
2021/08/10 01:25:10;;;;;;;4.47;1.45;;;19.50;80.40;;;;;;5054562;28;20124;-69
2021/08/10 01:27:54;;;;;;;4.70;1.48;;;19.50;80.30;;;;;;5073048;28;20028;-69
2021/08/10 01:30:23;;;;;;;4.40;1.60;;;19.50;80.40;;;;;;5052154;28;20035;-68
2021/08/10 01:32:50;;;;;;;3.00;1.38;;;19.50;80.40;;;;;;5069209;28;20032;-68
2021/08/10 01:35:19;;;;;;;3.65;1.20;;;19.50;80.40;;;;;;5073509;28;20020;-69
2021/08/10 01:37:50;;;;;;;4.68;1.60;;;19.50;80.40;;;;;;5073193;28;20025;-68
2021/08/10 01:40:17;;;;;;;4.30;1.35;;;19.50;80.30;;;;;;5068802;28;20029;-69
2021/08/10 01:42:43;;;;;;;5.55;1.30;;;19.50;80.40;;;;;;5056558;28;20111;-68
2021/08/10 01:45:10;;;;;;;4.13;1.45;;;19.50;80.40;;;;;;5071759;28;20119;-69
2021/08/10 01:47:38;;;;;;;4.63;1.33;;;19.50;80.40;;;;;;5073400;28;20029;-68
2021/08/10 01:50:07;;;;;;;3.40;1.20;;;19.50;80.50;;;;;;5072346;28;20141;-67
2021/08/10 01:52:33;;;;;;;4.03;1.58;;;19.50;80.50;;;;;;5061419;28;20035;-68
2021/08/10 01:54:59;;;;;;;4.13;1.20;;;19.50;80.60;;;;;;5060944;28;20127;-68
2021/08/10 01:57:26;;;;;;;3.95;1.33;;;19.50;80.60;;;;;;5072094;28;20095;-68
2021/08/10 01:59:54;;;;;;;6.05;1.52;;;19.50;80.60;;;;;;5063720;28;20547;-68
2021/08/10 02:02:20;;;;;;;3.85;1.40;;;19.50;80.60;;;;;;5052892;28;20047;-68
2021/08/10 02:04:49;;;;;;;4.80;1.40;;;19.50;80.60;;;;;;5038525;28;20029;-68
2021/08/10 02:07:16;;;;;;;4.30;1.60;;;19.50;80.50;;;;;;5051690;28;20024;-68
2021/08/10 02:09:42;;;;;;;4.43;1.60;;;19.50;80.60;;;;;;5071595;28;20082;-68
2021/08/10 02:12:09;;;;;;;5.70;1.40;;;19.50;80.40;;;;;;5072951;28;20032;-68
2021/08/10 02:14:36;;;;;;;4.25;1.25;;;19.40;80.40;;;;;;5054293;28;20021;-68
2021/08/10 02:17:04;;;;;;;4.55;1.30;;;19.50;80.50;;;;;;5073162;28;20025;-68
2021/08/10 02:19:30;;;;;;;3.47;1.55;;;19.50;80.50;;;;;;5061228;28;20521;-68
2021/08/10 02:22:12;;;;;;;3.13;1.20;;;19.50;80.40;;;;;;5067727;28;20514;-68
2021/08/10 02:24:44;;;;;;;4.05;1.40;;;19.50;80.40;;;;;;5060463;28;20029;-68
2021/08/10 02:27:16;;;;;;;2.83;1.40;;;19.40;80.40;;;;;;5057317;28;20033;-68
2021/08/10 02:29:44;;;;;;;3.78;1.40;;;19.50;80.50;;;;;;5061486;28;20099;-68
2021/08/10 02:32:13;;;;;;;2.63;1.20;;;19.50;80.50;;;;;;5037093;28;20439;-68
2021/08/10 02:34:41;;;;;;;3.78;1.40;;;19.50;80.60;;;;;;5038734;28;20050;-68
2021/08/10 02:37:08;;;;;;;3.38;1.30;;;19.40;80.60;;;;;;5056153;28;20120;-68
2021/08/10 02:39:36;;;;;;;4.03;1.13;;;19.50;80.70;;;;;;5064534;28;20017;-68
2021/08/10 02:42:03;;;;;;;4.13;1.25;;;19.50;80.80;;;;;;5053973;28;20111;-68
2021/08/10 02:44:29;;;;;;;4.22;1.30;;;19.50;80.70;;;;;;5053841;28;20086;-68
2021/08/10 02:46:55;;;;;;;3.97;1.50;;;19.50;81.30;;;;;;5068104;28;20021;-68
2021/08/10 02:49:21;;;;;;;3.33;1.13;;;19.40;80.80;;;;;;5067793;28;20032;-69
2021/08/10 02:51:46;;;;;;;3.53;1.20;;;19.50;81.00;;;;;;5044879;28;20473;-66
2021/08/10 02:54:13;;;;;;;3.85;1.20;;;19.40;80.80;;;;;;5062045;28;20012;-67
2021/08/10 02:56:54;;;;;;;4.00;1.20;;;19.40;80.90;;;;;;5044528;28;20025;-66
2021/08/10 02:59:29;;;;;;;3.80;1.35;;;19.40;80.80;;;;;;5055812;28;20028;-66
2021/08/10 03:02:18;;;;;;;3.60;1.25;;;19.40;80.60;;;;;;5071752;28;20044;-69
2021/08/10 03:05:07;;;;;;;5.07;1.58;;;19.40;80.80;;;;;;5070058;28;20039;-69
2021/08/10 03:07:33;;;;;;;2.92;1.27;;;19.40;81.30;;;;;;5051328;28;20115;-69
2021/08/10 03:10:02;;;;;;;5.18;1.55;;;19.40;80.90;;;;;;5067664;28;20037;-66
2021/08/10 03:12:33;;;;;;;3.53;1.40;;;19.40;80.90;;;;;;5059104;28;20032;-67
2021/08/10 03:14:59;;;;;;;3.30;1.20;;;19.40;80.80;;;;;;5051094;28;20060;-65
2021/08/10 03:17:31;;;;;;;2.75;1.40;;;19.40;80.80;;;;;;5038223;28;20068;-66
2021/08/10 03:19:57;;;;;;;4.68;1.30;;;19.40;80.90;;;;;;5051664;28;20368;-66
2021/08/10 03:22:25;;;;;;;3.67;1.52;;;19.40;81.10;;;;;;5051714;28;20040;-66
2021/08/10 03:24:53;;;;;;;3.65;1.27;;;19.40;81.00;;;;;;5056214;28;20645;-66
2021/08/10 03:27:19;;;;;;;4.10;1.30;;;19.40;80.90;;;;;;5061839;28;20067;-68
2021/08/10 03:29:46;;;;;;;4.18;1.20;;;19.40;80.80;;;;;;5070622;28;20040;-68
2021/08/10 03:32:14;;;;;;;4.70;1.50;;;19.40;80.80;;;;;;5053405;28;20428;-68
2021/08/10 03:34:40;;;;;;;3.80;1.20;;;19.40;80.60;;;;;;5058909;28;20375;-68
2021/08/10 03:37:07;;;;;;;4.22;1.55;;;19.40;80.70;;;;;;5050892;28;20029;-68
2021/08/10 03:39:33;;;;;;;3.72;1.50;;;19.40;80.80;;;;;;5048371;28;20028;-68
2021/08/10 03:42:00;;;;;;;3.33;1.30;;;19.40;80.80;;;;;;5060166;28;20087;-68
2021/08/10 03:44:26;;;;;;;2.60;1.20;;;19.40;81.00;;;;;;5059356;28;20024;-69
2021/08/10 03:46:52;;;;;;;3.72;1.30;;;19.40;81.10;;;;;;5051340;28;20398;-68
2021/08/10 03:49:22;;;;;;;4.45;1.50;;;19.40;81.10;;;;;;5055737;28;20032;-66
2021/08/10 03:51:48;;;;;;;4.38;1.88;;;19.40;81.10;;;;;;5067853;28;20350;-66
2021/08/10 03:54:14;;;;;;;4.15;1.40;;;19.40;81.00;;;;;;5068384;28;20025;-64
2021/08/10 03:56:41;;;;;;;3.58;1.30;;;19.40;81.10;;;;;;5036434;28;20057;-66
2021/08/10 03:59:10;;;;;;;4.30;1.40;;;19.40;81.10;;;;;;5051762;28;20017;-67
2021/08/10 04:01:36;;;;;;;4.13;1.20;;;19.40;81.10;;;;;;5067513;28;20083;-66
2021/08/10 04:04:02;;;;;;;3.53;1.60;;;19.40;81.00;;;;;;5059200;28;20101;-66
2021/08/10 04:06:30;;;;;;;2.33;1.13;;;19.40;81.00;;;;;;5048961;28;20099;-66
2021/08/10 04:08:56;;;;;;;3.42;1.35;;;19.40;81.00;;;;;;5051048;28;20029;-65
2021/08/10 04:11:23;;;;;;;3.90;1.38;;;19.40;81.00;;;;;;5068312;28;20028;-67
2021/08/10 04:13:49;;;;;;;3.72;1.30;;;19.40;81.00;;;;;;5052311;28;20017;-66
2021/08/10 04:16:17;;;;;;;3.30;1.17;;;19.40;81.10;;;;;;5070773;28;20025;-66
2021/08/10 04:18:42;;;;;;;3.05;1.33;;;19.40;81.10;;;;;;5051908;28;20077;-66
2021/08/10 04:21:08;;;;;;;3.05;1.25;;;19.40;81.20;;;;;;5051307;28;20030;-67
2021/08/10 04:23:34;;;;;;;3.38;1.67;;;19.40;81.30;;;;;;5033094;28;20067;-66
2021/08/10 04:25:59;;;;;;;3.45;1.33;;;19.40;81.30;;;;;;5032666;28;20032;-68
2021/08/10 04:28:25;;;;;;;3.72;1.58;;;19.40;81.30;;;;;;5050721;28;20025;-66
2021/08/10 04:30:51;;;;;;;3.67;1.60;;;19.40;81.30;;;;;;5032974;28;20071;-66
2021/08/10 04:33:16;;;;;;;3.85;1.55;;;19.40;81.40;;;;;;5073985;28;20032;-69
2021/08/10 04:35:42;;;;;;;3.97;1.58;;;19.40;81.40;;;;;;5073363;28;20017;-69
2021/08/10 04:38:08;;;;;;;2.45;1.23;;;19.40;81.50;;;;;;5074489;28;20039;-66
2021/08/10 04:40:34;;;;;;;6.30;1.48;;;19.40;81.50;;;;;;5074553;28;20032;-67
2021/08/10 04:42:59;;;;;;;2.92;1.60;;;19.40;81.50;;;;;;5059326;28;20017;-66
2021/08/10 04:45:25;;;;;;;3.63;1.60;;;19.40;81.50;;;;;;5074384;28;20060;-66
2021/08/10 04:47:52;;;;;;;3.13;1.52;;;19.40;81.60;;;;;;5074320;28;20029;-66
2021/08/10 04:50:18;;;;;;;3.85;1.38;;;19.40;81.60;;;;;;5071574;28;20034;-65
2021/08/10 04:52:44;;;;;;;4.38;1.50;;;19.40;81.70;;;;;;5065972;28;20024;-66
2021/08/10 04:55:10;;;;;;;3.85;1.50;;;19.40;81.70;;;;;;5047328;28;20036;-68
2021/08/10 04:57:36;;;;;;;3.70;1.60;;;19.40;81.60;;;;;;5055052;28;20037;-69
2021/08/10 05:00:02;;;;;;;3.97;1.42;;;19.40;81.70;;;;;;5053235;28;20048;-68
2021/08/10 05:02:27;;;;;;;3.20;1.30;;;19.40;81.70;;;;;;5062903;28;20036;-69
2021/08/10 05:04:53;;;;;;;2.70;1.30;;;19.40;81.90;;;;;;5053108;28;20028;-68
2021/08/10 05:07:18;;;;;;;3.85;1.40;;;19.40;81.90;;;;;;5044980;28;20024;-69
2021/08/10 05:09:44;;;;;;;4.57;1.50;;;19.40;81.90;;;;;;5057496;28;20032;-68
2021/08/10 05:12:09;;;;;;;5.65;1.45;;;19.40;81.90;;;;;;5039775;28;20023;-68
2021/08/10 05:14:36;;;;;;;5.68;1.60;;;19.40;82.00;;;;;;5068014;28;20059;-68
2021/08/10 05:17:01;;;;;;;5.53;1.65;;;19.40;82.10;;;;;;5051430;28;20440;-68
2021/08/10 05:19:27;;;;;;;4.78;1.52;;;19.40;82.30;;;;;;5070583;28;20025;-68
2021/08/10 05:21:52;;;;;;;5.78;1.88;;;19.40;83.10;;;;;;5073171;28;20036;-71
2021/08/10 05:24:18;;;;;;;8.27;2.15;;;19.40;83.20;;;;;;5061196;28;20390;-72
2021/08/10 05:26:44;;;;;;;7.20;2.00;;;19.50;83.00;;;;;;5061121;28;20037;-71
2021/08/10 05:29:09;;;;;;;7.18;1.73;;;19.50;82.50;;;;;;5041595;28;20397;-69
2021/08/10 05:31:35;;;;;;;5.90;1.83;;;19.50;82.10;;;;;;5061086;28;20033;-69
2021/08/10 05:34:00;;;;;;;7.45;2.08;;;19.50;81.90;;;;;;5053443;28;20036;-68
2021/08/10 05:36:26;;;;;;;8.63;2.00;;;19.50;81.80;;;;;;5055980;28;20490;-69
2021/08/10 05:38:54;;;;;;;10.40;2.47;;;19.50;81.80;;;;;;5053013;28;20104;-69
2021/08/10 05:41:20;;;;;;;6.35;1.73;;;19.50;81.90;;;;;;5051338;28;20036;-70
2021/08/10 05:43:47;;;;;;;7.60;2.33;;;19.50;81.80;;;;;;5060593;28;20034;-69
2021/08/10 05:46:12;;;;;;;6.60;2.28;;;19.50;81.70;;;;;;5065146;28;20617;-69
2021/08/10 05:48:38;;;;;;;6.93;1.80;;;19.50;81.70;;;;;;5065355;28;20024;-70
2021/08/10 05:51:05;;;;;;;6.28;2.00;;;19.50;81.50;;;;;;5061167;28;20033;-69
2021/08/10 05:53:32;;;;;;;5.82;1.90;;;19.50;81.60;;;;;;5043550;28;20021;-69
2021/08/10 05:55:58;;;;;;;7.43;1.90;;;19.50;81.50;;;;;;5065127;28;20082;-70
2021/08/10 05:58:24;;;;;;;5.47;1.85;;;19.50;81.50;;;;;;5065999;28;20526;-69
2021/08/10 06:00:49;;;;;;;5.07;1.92;;;19.50;81.50;;;;;;5066741;28;20055;-70
2021/08/10 06:03:15;;;;;;;6.32;1.90;;;19.50;81.60;;;;;;5065868;28;20275;-70
2021/08/10 06:05:41;;;;;;;5.03;1.98;;;19.50;81.70;;;;;;5066312;28;20032;-69
2021/08/10 06:08:07;;;;;;;6.40;1.85;;;19.60;81.70;;;;;;5064330;28;20029;-68
2021/08/10 06:10:32;;;;;;;6.57;2.10;;;19.50;81.80;;;;;;5056949;28;20033;-71
2021/08/10 06:12:58;;;;;;;5.18;2.00;;;19.50;81.80;;;;;;5048154;28;20399;-71
2021/08/10 06:15:24;;;;;;;6.50;1.80;;;19.50;81.80;;;;;;5036319;28;20079;-71
2021/08/10 06:17:49;;;;;;;3.90;1.70;;;19.50;81.70;;;;;;5057190;28;20028;-71
2021/08/10 06:20:15;;;;;;;8.20;2.33;;;19.50;81.80;;;;;;5055329;28;20031;-67
2021/08/10 06:22:41;;;;;;;7.72;1.73;;;19.50;81.70;;;;;;5056859;28;20025;-68
2021/08/10 06:25:07;;;;;;;7.03;2.17;;;19.50;81.80;;;;;;5037859;28;20029;-68
2021/08/10 06:27:32;;;;;;;9.48;2.05;;;19.50;81.90;;;;;;5046042;28;20029;-69
2021/08/10 06:29:58;;;;;;;9.95;2.05;;;19.70;81.70;;;;;;5044443;28;20086;-69
2021/08/10 06:32:23;;;;;;;7.40;2.10;;;19.80;81.30;;;;;;5059800;28;20040;-69
2021/08/10 06:34:49;;;;;;;4.57;1.70;;;19.90;80.90;;;;;;5065209;28;20028;-69
2021/08/10 06:37:14;;;;;;;5.05;1.77;;;20.00;80.20;;;;;;5065921;28;20104;-69
2021/08/10 06:39:40;;;;;;;7.43;2.03;;;20.10;79.70;;;;;;5066152;28;20032;-69
2021/08/10 06:42:05;;;;;;;4.72;2.03;;;20.20;79.20;;;;;;5040981;28;20028;-69
2021/08/10 06:44:31;;;;;;;4.22;1.52;;;20.30;78.70;;;;;;5046766;28;20380;-68
2021/08/10 06:46:56;;;;;;;6.03;1.90;;;20.40;78.10;;;;;;5046621;28;20070;-67
2021/08/10 06:49:22;;;;;;;13.55;2.33;;;20.40;77.90;;;;;;5064693;28;20032;-67
2021/08/10 06:51:47;;;;;;;7.55;2.67;;;20.50;77.40;;;;;;5028706;28;20052;-67
2021/08/10 06:54:13;;;;;;;7.13;3.05;;;20.60;77.00;;;;;;5055705;28;20028;-66
2021/08/10 06:56:38;;;;;;;7.78;2.72;;;20.70;76.70;;;;;;5046138;28;20025;-67
2021/08/10 06:59:04;;;;;;;8.80;2.97;;;20.70;76.20;;;;;;5046124;28;20021;-67
2021/08/10 07:01:29;;;;;;;7.72;3.53;;;20.70;76.40;;;;;;5046349;28;20044;-68
2021/08/10 07:03:56;;;;;;;7.20;3.20;;;20.80;75.70;;;;;;5045500;28;20025;-67
2021/08/10 07:06:22;;;;;;;7.65;3.10;;;20.90;75.20;;;;;;5059264;28;20066;-67
2021/08/10 07:08:52;;;;;;;8.32;3.50;;;20.90;74.90;;;;;;5065841;28;20446;-68
2021/08/10 07:11:18;;;;;;;8.48;3.80;;;21.00;74.50;;;;;;5055102;28;20024;-67
2021/08/10 07:13:43;;;;;;;8.73;4.10;;;21.00;74.20;;;;;;5064305;28;20070;-67
2021/08/10 07:16:09;;;;;;;8.73;3.90;;;21.10;73.90;;;;;;5065358;28;20534;-67
2021/08/10 07:18:37;;;;;;;9.00;3.95;;;21.10;73.30;;;;;;5047264;28;20024;-68
2021/08/10 07:21:02;;;;;;;8.82;3.90;;;21.10;73.40;;;;;;5045468;28;20032;-67
2021/08/10 07:23:28;;;;;;;9.38;4.18;;;21.20;72.50;;;;;;5065473;28;20098;-67
2021/08/10 07:25:53;;;;;;;10.10;4.30;;;21.20;72.30;;;;;;5035895;28;20029;-71
2021/08/10 07:28:19;;;;;;;9.48;3.33;;;21.30;71.90;;;;;;5050959;28;20024;-67
2021/08/10 07:30:44;;;;;;;8.20;3.97;;;21.20;72.50;;;;;;5049962;28;20123;-66
2021/08/10 07:33:10;;;;;;;8.55;3.25;;;21.10;73.00;;;;;;5052382;28;20082;-66
2021/08/10 07:35:36;;;;;;;8.70;3.25;;;21.10;72.90;;;;;;5052359;28;20244;-66
2021/08/10 07:38:01;;;;;;;6.63;2.70;;;21.10;72.90;;;;;;5052712;28;20028;-66
2021/08/10 07:40:27;;;;;;;8.07;3.15;;;21.20;73.00;;;;;;5069701;28;20031;-67
2021/08/10 07:42:52;;;;;;;7.38;3.10;;;21.20;73.30;;;;;;5068192;28;20399;-67
2021/08/10 07:45:18;;;;;;;6.55;2.58;;;21.20;73.00;;;;;;5070800;28;20112;-67
2021/08/10 07:47:43;;;;;;;7.07;2.83;;;21.20;73.00;;;;;;5066191;28;20887;-66
2021/08/10 07:50:09;;;;;;;7.30;3.05;;;21.20;73.20;;;;;;5067857;28;20020;-66
2021/08/10 07:52:35;;;;;;;7.10;3.15;;;21.40;72.50;;;;;;5051623;28;20029;-66
2021/08/10 07:55:00;;;;;;;7.40;2.70;;;21.60;71.80;;;;;;5051936;28;20020;-67
2021/08/10 07:57:26;;;;;;;7.03;3.40;;;21.70;71.30;;;;;;5051587;28;20021;-67
2021/08/10 07:59:51;;;;;;;8.13;3.05;;;21.70;71.00;;;;;;5051459;28;20474;-67
2021/08/10 08:02:17;;;;;;;6.85;2.80;;;21.80;70.70;;;;;;5052429;28;20444;-66
2021/08/10 08:04:42;;;;;;;6.65;2.83;;;21.80;70.40;;;;;;5048095;28;20012;-67
2021/08/10 08:07:09;;;;;;;6.95;3.25;;;21.90;70.60;;;;;;5070485;28;20474;-66
2021/08/10 08:09:34;;;;;;;5.72;2.63;;;21.90;70.30;;;;;;5070562;28;20470;-67
2021/08/10 08:12:00;;;;;;;7.55;3.47;;;21.70;70.40;;;;;;5065714;28;20027;-67
2021/08/10 08:14:26;;;;;;;7.78;2.80;;;21.70;70.70;;;;;;5050712;28;20822;-67
2021/08/10 08:16:51;;;;;;;7.32;3.50;;;21.70;70.90;;;;;;5032600;28;20453;-67
2021/08/10 08:19:18;;;;;;;7.28;2.97;;;21.70;71.10;;;;;;5033052;28;20063;-67
2021/08/10 08:21:43;;;;;;;7.53;2.70;;;21.70;71.10;;;;;;5033021;28;20622;-67
2021/08/10 08:24:09;;;;;;;7.53;3.30;;;21.70;71.10;;;;;;5032687;28;20558;-66
2021/08/10 08:26:34;;;;;;;6.45;2.63;;;21.90;71.30;;;;;;5032699;28;20035;-66
2021/08/10 08:29:00;;;;;;;8.05;2.92;;;22.00;70.30;;;;;;5060230;28;20074;-67
2021/08/10 08:31:26;;;;;;;6.25;2.80;;;22.10;70.20;;;;;;5052181;28;20071;-67
2021/08/10 08:33:52;;;;;;;7.65;2.78;;;22.20;69.30;;;;;;5052690;28;20021;-67
2021/08/10 08:36:18;;;;;;;8.10;3.20;;;22.30;68.80;;;;;;5070564;28;20096;-67
2021/08/10 08:38:43;;;;;;;7.53;3.25;;;22.30;68.70;;;;;;5070370;28;20462;-67
2021/08/10 08:41:10;;;;;;;6.32;2.70;;;22.30;69.20;;;;;;5052601;28;20075;-67
2021/08/10 08:43:40;;;;;;;5.68;2.28;;;22.40;68.80;;;;;;5052617;28;20060;-66
2021/08/10 08:46:06;;;;;;;7.18;3.10;;;22.50;69.30;;;;;;5051984;28;20074;-67
2021/08/10 08:48:32;;;;;;;4.93;2.20;;;22.50;68.60;;;;;;5069494;28;20466;-66
2021/08/10 08:51:00;;;;;;;7.38;3.00;;;22.60;68.90;;;;;;5070535;28;20504;-67
2021/08/10 08:53:27;;;;;;;6.80;2.65;;;22.60;68.60;;;;;;5070320;28;20013;-67
2021/08/10 08:55:53;;;;;;;6.35;2.63;;;22.60;68.00;;;;;;5070500;28;20486;-67
2021/08/10 08:58:19;;;;;;;7.32;2.72;;;22.60;67.60;;;;;;5070507;28;20024;-67
2021/08/10 09:00:45;;;;;;;7.03;2.80;;;22.70;67.80;;;;;;5070492;28;20064;-67
2021/08/10 09:03:11;;;;;;;6.05;2.53;;;22.70;67.60;;;;;;5070316;28;20032;-67
2021/08/10 09:05:39;;;;;;;6.18;2.60;;;22.70;68.10;;;;;;5070255;28;20056;-66
2021/08/10 09:08:24;;;;;;;8.18;2.75;;;22.70;67.70;;;;;;5070044;28;20128;-67
2021/08/10 09:10:54;;;;;;;5.72;2.60;;;22.80;67.70;;;;;;5070459;28;20421;-66
2021/08/10 09:13:20;;;;;;;6.38;2.60;;;22.80;68.20;;;;;;5054079;28;20017;-66
2021/08/10 09:15:47;;;;;;;6.30;2.42;;;22.80;68.00;;;;;;5049491;28;20025;-66
2021/08/10 09:18:20;;;;;;;5.95;2.63;;;22.80;67.40;;;;;;5032521;28;20033;-66
2021/08/10 09:21:03;;;;;;;6.93;2.70;;;22.80;67.20;;;;;;5035979;28;20051;-67
2021/08/10 09:23:40;;;;;;;5.63;2.22;;;22.70;67.10;;;;;;5035714;28;20471;-67
2021/08/10 09:26:08;;;;;;;6.30;2.63;;;22.70;67.10;;;;;;5035732;28;20033;-68
2021/08/10 09:28:35;;;;;;;7.07;2.78;;;22.70;67.50;;;;;;5041842;28;20009;-67
2021/08/10 09:31:34;;;;;;;5.20;2.22;;;22.60;67.40;;;;;;5073166;28;20055;-66
2021/08/10 09:34:02;;;;;;;7.47;2.93;;;22.60;67.60;;;;;;5055953;28;20485;-67
2021/08/10 09:36:29;;;;;;;5.82;2.50;;;22.60;68.00;;;;;;5073205;28;20909;-67
2021/08/10 09:38:57;;;;;;;6.70;2.40;;;22.60;68.20;;;;;;5073310;28;20389;-68
2021/08/10 09:41:23;;;;;;;5.95;2.35;;;22.60;67.70;;;;;;5073839;28;20436;-67
2021/08/10 09:43:50;;;;;;;5.55;2.47;;;22.60;68.00;;;;;;5073662;28;20017;-67
2021/08/10 09:46:25;;;;;;;6.30;2.65;;;22.60;67.60;;;;;;5072842;28;20373;-69
2021/08/10 09:48:50;;;;;;;7.00;2.72;;;22.70;67.40;;;;;;5064356;28;20055;-67
2021/08/10 09:51:21;;;;;;;6.40;2.60;;;22.70;67.40;;;;;;5060701;28;20024;-67
2021/08/10 09:54:14;;;;;;;4.80;2.35;;;22.60;67.80;;;;;;5039843;28;20470;-67
2021/08/10 09:56:48;;;;;;;6.45;2.55;;;22.70;67.50;;;;;;5032255;28;20128;-68
2021/08/10 09:59:16;;;;;;;6.70;2.78;;;22.80;66.80;;;;;;5057054;28;20021;-68
2021/08/10 10:01:43;;;;;;;7.57;2.65;;;22.80;66.50;;;;;;5034817;28;20078;-67
2021/08/10 10:04:11;;;;;;;4.95;2.45;;;22.80;66.40;;;;;;5056818;28;20028;-67
2021/08/10 10:06:37;;;;;;;6.07;2.58;;;22.80;66.50;;;;;;5049275;28;20083;-68
2021/08/10 10:09:04;;;;;;;6.22;2.47;;;22.80;66.50;;;;;;5067319;28;20130;-68
2021/08/10 10:11:37;;;;;;;5.70;2.53;;;22.80;66.30;;;;;;5065875;28;20508;-68
2021/08/10 10:14:03;;;;;;;6.20;2.75;;;22.90;66.20;;;;;;5042925;28;20029;-67
2021/08/10 10:16:30;;;;;;;7.05;2.65;;;22.90;66.20;;;;;;5043492;28;20104;-67
2021/08/10 10:19:02;;;;;;;5.68;2.50;;;22.80;66.40;;;;;;5058280;28;20032;-68
2021/08/10 10:21:29;;;;;;;5.95;2.50;;;22.80;66.40;;;;;;5058682;28;20029;-67
2021/08/10 10:23:57;;;;;;;5.75;2.40;;;22.80;66.30;;;;;;5061501;28;20584;-67
2021/08/10 10:26:25;;;;;;;5.60;2.58;;;22.70;66.30;;;;;;5063717;28;20470;-68
2021/08/10 10:28:51;;;;;;;5.97;2.67;;;22.70;66.50;;;;;;5060754;28;20394;-68
2021/08/10 10:31:17;;;;;;;6.22;2.65;;;22.70;66.70;;;;;;5036011;28;20125;-68
2021/08/10 10:33:44;;;;;;;5.30;2.42;;;22.60;67.00;;;;;;5070113;28;20139;-68
2021/08/10 10:36:10;;;;;;;5.22;2.15;;;22.70;66.90;;;;;;5040411;28;20021;-67
2021/08/10 10:38:40;;;;;;;5.85;2.45;;;22.70;67.10;;;;;;5056910;28;20406;-67
2021/08/10 10:41:07;;;;;;;5.63;2.60;;;22.60;67.40;;;;;;5054105;28;20032;-67
2021/08/10 10:43:33;;;;;;;6.00;2.50;;;22.60;67.60;;;;;;5065948;28;20032;-67
2021/08/10 10:46:27;;;;;;;5.55;2.45;;;22.60;67.30;;;;;;5033762;28;20021;-66
2021/08/10 10:48:54;;;;;;;5.22;2.58;;;22.70;67.20;;;;;;5064619;28;20402;-67
2021/08/10 10:51:39;;;;;;;5.28;2.60;;;22.70;67.00;;;;;;5060354;28;20090;-66
2021/08/10 10:54:23;;;;;;;6.55;2.60;;;22.70;66.70;;;;;;5046048;28;20112;-66
2021/08/10 10:56:57;;;;;;;6.15;2.70;;;22.70;67.70;;;;;;5045307;28;20033;-67
2021/08/10 10:59:27;;;;;;;4.65;2.20;;;22.70;67.20;;;;;;5058348;28;20017;-67
2021/08/10 11:02:11;;;;;;;4.72;2.30;;;22.70;66.80;;;;;;5055598;28;20021;-67
2021/08/10 11:04:37;;;;;;;5.25;2.47;;;22.70;66.90;;;;;;5035932;28;20901;-67
2021/08/10 11:07:39;;;;;;;5.10;2.40;;;22.70;66.90;;;;;;5056731;28;20028;-68
2021/08/10 11:10:11;;;;;;;6.82;2.60;;;22.70;67.10;;;;;;5064922;28;20523;-67
2021/08/10 11:12:42;;;;;;;4.85;2.13;;;22.70;67.30;;;;;;5053619;28;20043;-67
2021/08/10 11:15:12;;;;;;;5.90;2.30;;;22.70;67.30;;;;;;5070664;28;20016;-67
2021/08/10 11:17:37;;;;;;;8.07;2.45;;;22.60;67.40;;;;;;5054212;28;20021;-67
2021/08/10 11:20:23;;;;;;;6.57;2.60;;;22.60;67.10;;;;;;5060067;28;20020;-67
2021/08/10 11:22:49;;;;;;;5.35;2.38;;;22.60;67.10;;;;;;5063997;28;20028;-66
2021/08/10 11:25:26;;;;;;;6.43;2.47;;;22.60;67.50;;;;;;5064922;28;20478;-67
2021/08/10 11:27:51;;;;;;;6.05;2.65;;;22.60;67.20;;;;;;5047475;28;20032;-67
2021/08/10 11:30:20;;;;;;;5.18;2.28;;;22.60;67.30;;;;;;5052076;28;20422;-66
2021/08/10 11:32:48;;;;;;;5.13;2.35;;;22.60;67.10;;;;;;5042236;28;20061;-68
2021/08/10 11:35:29;;;;;;;4.68;2.35;;;22.60;67.50;;;;;;5053003;28;20431;-67
2021/08/10 11:38:17;;;;;;;4.95;2.20;;;22.60;67.20;;;;;;5056861;28;20021;-66
2021/08/10 11:41:02;;;;;;;5.03;2.35;;;22.60;67.30;;;;;;5058604;28;20025;-66
2021/08/10 11:43:42;;;;;;;7.25;2.40;;;22.60;67.20;;;;;;5052183;28;20111;-67
2021/08/10 11:46:30;;;;;;;6.60;2.08;;;22.60;67.20;;;;;;5056199;28;20085;-67
2021/08/10 11:48:58;;;;;;;5.30;2.30;;;22.50;67.20;;;;;;5069216;28;20032;-66
2021/08/10 11:51:34;;;;;;;5.13;2.50;;;22.50;67.40;;;;;;5051196;28;20112;-68
2021/08/10 11:54:12;;;;;;;6.78;2.35;;;22.40;67.40;;;;;;5051577;28;20170;-67
2021/08/10 11:57:01;;;;;;;5.70;2.58;;;22.50;67.30;;;;;;5067488;28;20029;-67
2021/08/10 11:59:26;;;;;;;4.93;2.38;;;22.50;67.40;;;;;;5048724;28;20021;-66
2021/08/10 12:01:58;;;;;;;5.57;2.67;;;22.50;67.50;;;;;;5057883;28;20040;-71
2021/08/10 12:04:26;;;;;;;5.75;2.63;;;22.50;67.90;;;;;;5058410;28;20025;-65
2021/08/10 12:06:56;;;;;;;7.30;2.30;;;22.50;67.60;;;;;;5059302;28;20398;-67
2021/08/10 12:09:26;;;;;;;6.47;2.42;;;22.50;67.90;;;;;;5057747;28;20032;-63
2021/08/10 12:11:55;;;;;;;5.80;2.63;;;22.50;67.90;;;;;;5043913;28;20451;-64
2021/08/10 12:14:23;;;;;;;6.22;2.55;;;22.40;67.80;;;;;;5061523;28;20458;-65
2021/08/10 12:17:05;;;;;;;4.75;2.15;;;22.40;67.90;;;;;;5064827;28;20486;-65
2021/08/10 12:19:34;;;;;;;5.55;2.33;;;22.50;68.00;;;;;;5043315;28;20116;-65
2021/08/10 12:22:00;;;;;;;5.75;2.40;;;22.50;67.80;;;;;;5069769;28;20024;-66
2021/08/10 12:24:29;;;;;;;4.95;2.40;;;22.50;67.90;;;;;;5070164;28;20024;-65
2021/08/10 12:26:54;;;;;;;6.53;2.65;;;22.40;68.00;;;;;;5070825;28;20025;-64
2021/08/10 12:29:20;;;;;;;5.55;2.40;;;22.40;68.50;;;;;;5062287;28;20028;-67
2021/08/10 12:31:46;;;;;;;8.15;3.03;;;22.40;68.30;;;;;;5068508;28;20025;-67
2021/08/10 12:34:12;;;;;;;5.82;2.60;;;22.40;68.70;;;;;;5051231;28;20020;-66
2021/08/10 12:36:58;;;;;;;8.55;2.60;;;22.40;69.00;;;;;;5069854;28;20167;-66
2021/08/10 12:39:24;;;;;;;6.05;2.55;;;22.40;69.10;;;;;;5052596;28;20501;-67
2021/08/10 12:41:51;;;;;;;5.68;2.58;;;22.40;69.10;;;;;;5052183;28;20482;-65
2021/08/10 12:44:16;;;;;;;6.20;2.72;;;22.40;68.90;;;;;;5052110;28;20051;-67
2021/08/10 12:46:43;;;;;;;5.85;2.80;;;22.30;68.90;;;;;;5052449;28;20029;-67
2021/08/10 12:49:16;;;;;;;7.85;2.38;;;22.30;69.80;;;;;;5065212;28;20036;-67
2021/08/10 12:52:02;;;;;;;7.00;2.75;;;22.30;68.90;;;;;;5069828;28;20075;-67